createdAt,value
2018-06-17T00:00:21.000Z,18.10
2018-06-17T00:00:55.152Z,18.10
2018-06-17T00:01:28.988Z,18.10
2018-06-17T00:02:02.822Z,18.10
2018-06-17T00:02:36.816Z,18.10
2018-06-17T00:03:10.668Z,18.10
2018-06-17T00:03:44.534Z,18.10
2018-06-17T00:04:18.428Z,18.10
2018-06-17T00:04:52.309Z,18.10
2018-06-17T00:05:26.475Z,18.10
2018-06-17T00:06:00.313Z,18.00
2018-06-17T00:06:34.144Z,18.10
2018-06-17T00:07:07.976Z,18.00
2018-06-17T00:07:41.836Z,18.10
2018-06-17T00:08:15.654Z,18.00
2018-06-17T00:08:49.484Z,18.10
2018-06-17T00:09:23.708Z,18.10
2018-06-17T00:09:57.544Z,18.00
2018-06-17T00:10:31.510Z,18.00
2018-06-17T00:11:05.365Z,18.00
2018-06-17T00:11:39.211Z,18.00
2018-06-17T00:12:13.079Z,18.00
2018-06-17T00:13:20.505Z,18.00
2018-06-17T00:13:55.024Z,18.00
2018-06-17T00:14:29.253Z,18.00
2018-06-17T00:15:03.110Z,18.00
2018-06-17T00:15:36.952Z,18.00
2018-06-17T00:16:11.154Z,18.00
2018-06-17T00:16:44.960Z,18.00
2018-06-17T00:17:52.351Z,18.00
2018-06-17T00:18:26.224Z,17.90
2018-06-17T00:19:00.092Z,17.90
2018-06-17T00:19:33.945Z,17.90
2018-06-17T00:20:07.829Z,17.90
2018-06-17T00:20:41.781Z,17.90
2018-06-17T00:21:15.651Z,17.90
2018-06-17T00:21:49.510Z,17.90
2018-06-17T00:22:23.381Z,17.90
2018-06-17T00:22:57.228Z,17.90
2018-06-17T00:23:31.193Z,17.90
2018-06-17T00:24:05.722Z,17.90
2018-06-17T00:24:39.757Z,17.90
2018-06-17T00:25:13.585Z,17.90
2018-06-17T00:25:47.415Z,17.90
2018-06-17T00:26:21.269Z,17.90
2018-06-17T00:26:55.115Z,17.90
2018-06-17T00:27:28.994Z,17.90
2018-06-17T00:28:02.847Z,17.90
2018-06-17T00:28:36.689Z,17.90
2018-06-17T00:29:10.566Z,17.90
2018-06-17T00:29:44.441Z,17.90
2018-06-17T00:30:52.141Z,17.90
2018-06-17T00:31:26.004Z,17.90
2018-06-17T00:31:59.833Z,17.90
2018-06-17T00:32:33.674Z,17.90
2018-06-17T00:33:07.522Z,17.90
2018-06-17T00:33:41.404Z,17.90
2018-06-17T00:34:48.967Z,17.90
2018-06-17T00:35:22.800Z,17.90
2018-06-17T00:36:01.150Z,17.80
2018-06-17T00:36:35.087Z,17.90
2018-06-17T00:37:08.962Z,17.90
2018-06-17T00:37:42.830Z,17.80
2018-06-17T00:38:16.718Z,17.80
2018-06-17T00:38:50.934Z,17.90
2018-06-17T00:39:24.819Z,17.80
2018-06-17T00:39:58.701Z,17.90
2018-06-17T00:40:32.523Z,17.90
2018-06-17T00:41:06.534Z,17.90
2018-06-17T00:41:41.109Z,17.90
2018-06-17T00:42:14.956Z,17.90
2018-06-17T00:43:22.696Z,17.90
2018-06-17T00:43:56.620Z,17.90
2018-06-17T00:44:30.819Z,17.90
2018-06-17T00:45:04.845Z,17.90
2018-06-17T00:45:38.711Z,17.80
2018-06-17T00:46:12.577Z,17.80
2018-06-17T00:46:46.393Z,17.90
2018-06-17T00:47:20.262Z,17.80
2018-06-17T00:47:54.663Z,17.80
2018-06-17T00:48:28.513Z,17.80
2018-06-17T00:49:02.357Z,17.80
2018-06-17T00:49:36.267Z,17.80
2018-06-17T00:50:10.154Z,17.80
2018-06-17T00:50:44.014Z,17.80
2018-06-17T00:51:17.863Z,17.80
2018-06-17T00:51:51.708Z,17.80
2018-06-17T00:52:25.594Z,17.80
2018-06-17T00:52:59.442Z,17.80
2018-06-17T00:53:33.321Z,17.80
2018-06-17T00:54:07.217Z,17.80
2018-06-17T00:54:41.072Z,17.80
2018-06-17T00:55:15.252Z,17.70
2018-06-17T00:55:49.098Z,17.80
2018-06-17T00:56:23.270Z,17.70
2018-06-17T00:57:08.488Z,17.70
2018-06-17T00:57:48.472Z,17.70
2018-06-17T00:58:22.337Z,17.70
2018-06-17T00:58:56.189Z,17.70
2018-06-17T00:59:30.101Z,17.70
2018-06-17T01:00:03.994Z,17.70
2018-06-17T01:00:38.208Z,17.70
2018-06-17T01:01:12.118Z,17.60
2018-06-17T01:01:45.977Z,17.60
2018-06-17T01:02:20.533Z,17.60
2018-06-17T01:02:54.383Z,17.60
2018-06-17T01:03:28.239Z,17.60
2018-06-17T01:04:02.442Z,17.60
2018-06-17T01:04:36.378Z,17.60
2018-06-17T01:05:10.304Z,17.60
2018-06-17T01:05:44.152Z,17.60
2018-06-17T01:06:18.046Z,17.60
2018-06-17T01:06:51.888Z,17.50
2018-06-17T01:07:25.721Z,17.60
2018-06-17T01:07:59.587Z,17.50
2018-06-17T01:08:33.449Z,17.50
2018-06-17T01:09:07.859Z,17.50
2018-06-17T01:10:15.914Z,17.50
2018-06-17T01:10:50.299Z,17.50
2018-06-17T01:11:24.148Z,17.50
2018-06-17T01:12:31.494Z,17.50
2018-06-17T01:13:05.393Z,17.50
2018-06-17T01:13:39.628Z,17.50
2018-06-17T01:14:47.185Z,17.50
2018-06-17T01:15:21.038Z,17.50
2018-06-17T01:15:55.002Z,17.50
2018-06-17T01:16:28.831Z,17.50
2018-06-17T01:17:02.740Z,17.50
2018-06-17T01:17:37.337Z,17.50
2018-06-17T01:18:11.546Z,17.50
2018-06-17T01:18:45.357Z,17.50
2018-06-17T01:19:19.240Z,17.40
2018-06-17T01:19:53.804Z,17.40
2018-06-17T01:21:01.522Z,17.40
2018-06-17T01:21:35.769Z,17.40
2018-06-17T01:22:10.202Z,17.40
2018-06-17T01:22:44.024Z,17.40
2018-06-17T01:23:17.842Z,17.40
2018-06-17T01:23:51.717Z,17.40
2018-06-17T01:24:26.106Z,17.40
2018-06-17T01:25:00.000Z,17.40
2018-06-17T01:25:33.847Z,17.40
2018-06-17T01:26:07.727Z,17.40
2018-06-17T01:26:42.254Z,17.40
2018-06-17T01:27:16.434Z,17.40
2018-06-17T01:27:50.310Z,17.40
2018-06-17T01:28:24.214Z,17.40
2018-06-17T01:28:58.068Z,17.40
2018-06-17T01:30:05.767Z,17.40
2018-06-17T01:30:39.619Z,17.40
2018-06-17T01:31:13.498Z,17.40
2018-06-17T01:31:47.351Z,17.30
2018-06-17T01:32:21.217Z,17.30
2018-06-17T01:32:55.404Z,17.30
2018-06-17T01:33:29.216Z,17.30
2018-06-17T01:34:03.088Z,17.30
2018-06-17T01:34:36.975Z,17.30
2018-06-17T01:35:11.021Z,17.30
2018-06-17T01:35:44.853Z,17.30
2018-06-17T01:36:18.738Z,17.30
2018-06-17T01:36:52.602Z,17.30
2018-06-17T01:37:26.454Z,17.30
2018-06-17T01:38:00.305Z,17.30
2018-06-17T01:38:34.172Z,17.20
2018-06-17T01:39:08.824Z,17.30
2018-06-17T01:39:42.693Z,17.30
2018-06-17T01:40:16.698Z,17.30
2018-06-17T01:40:50.589Z,17.20
2018-06-17T01:41:24.448Z,17.30
2018-06-17T01:41:58.349Z,17.30
2018-06-17T01:42:32.221Z,17.20
2018-06-17T01:43:06.065Z,17.20
2018-06-17T01:43:39.900Z,17.20
2018-06-17T01:44:13.778Z,17.20
2018-06-17T01:44:47.666Z,17.20
2018-06-17T01:45:21.524Z,17.20
2018-06-17T01:45:55.384Z,17.20
2018-06-17T01:46:29.342Z,17.20
2018-06-17T01:47:03.251Z,17.20
2018-06-17T01:47:37.093Z,17.20
2018-06-17T01:48:10.940Z,17.20
2018-06-17T01:48:44.784Z,17.20
2018-06-17T01:49:52.152Z,17.20
2018-06-17T01:50:26.028Z,17.20
2018-06-17T01:50:59.900Z,17.20
2018-06-17T01:51:33.734Z,17.20
2018-06-17T01:52:07.599Z,17.20
2018-06-17T01:52:41.468Z,17.10
2018-06-17T01:53:15.575Z,17.20
2018-06-17T01:53:49.412Z,17.10
2018-06-17T01:54:23.290Z,17.10
2018-06-17T01:54:57.152Z,17.10
2018-06-17T01:55:31.428Z,17.10
2018-06-17T01:56:06.490Z,17.10
2018-06-17T01:56:40.330Z,17.10
2018-06-17T01:57:14.194Z,17.10
2018-06-17T01:57:48.017Z,17.10
2018-06-17T01:58:21.884Z,17.10
2018-06-17T01:58:56.241Z,17.10
2018-06-17T02:00:03.982Z,17.10
2018-06-17T02:00:38.386Z,17.10
2018-06-17T02:01:12.370Z,17.00
2018-06-17T02:01:46.218Z,17.00
2018-06-17T02:02:54.154Z,17.00
2018-06-17T02:03:34.174Z,17.00
2018-06-17T02:04:13.872Z,17.00
2018-06-17T02:04:53.167Z,17.00
2018-06-17T02:05:32.514Z,17.00
2018-06-17T02:06:12.240Z,17.00
2018-06-17T02:06:51.957Z,17.00
2018-06-17T02:07:31.200Z,17.00
2018-06-17T02:08:11.114Z,17.00
2018-06-17T02:08:51.477Z,16.90
2018-06-17T02:09:30.564Z,16.90
2018-06-17T02:10:09.849Z,16.90
2018-06-17T02:10:49.102Z,16.90
2018-06-17T02:11:28.337Z,16.90
2018-06-17T02:12:07.376Z,16.90
2018-06-17T02:12:41.571Z,16.90
2018-06-17T02:13:15.418Z,16.90
2018-06-17T02:13:49.330Z,16.90
2018-06-17T02:14:28.691Z,16.90
2018-06-17T02:15:02.548Z,16.90
2018-06-17T02:15:36.412Z,16.90
2018-06-17T02:16:10.308Z,16.90
2018-06-17T02:16:44.162Z,16.90
2018-06-17T02:17:18.502Z,16.90
2018-06-17T02:17:52.684Z,16.90
2018-06-17T02:18:26.869Z,16.90
2018-06-17T02:19:00.731Z,16.90
2018-06-17T02:19:34.578Z,16.90
2018-06-17T02:20:08.408Z,16.90
2018-06-17T02:20:42.280Z,16.90
2018-06-17T02:21:16.130Z,16.90
2018-06-17T02:21:49.964Z,16.90
2018-06-17T02:22:24.174Z,16.90
2018-06-17T02:22:58.218Z,16.90
2018-06-17T02:23:32.092Z,16.90
2018-06-17T02:24:06.564Z,16.90
2018-06-17T02:24:40.394Z,16.90
2018-06-17T02:25:14.266Z,16.90
2018-06-17T02:25:48.142Z,16.90
2018-06-17T02:26:21.980Z,16.90
2018-06-17T02:26:55.823Z,16.90
2018-06-17T02:27:29.700Z,16.90
2018-06-17T02:28:03.562Z,16.90
2018-06-17T02:28:37.418Z,16.80
2018-06-17T02:29:11.294Z,16.90
2018-06-17T02:29:45.162Z,16.80
2018-06-17T02:30:19.047Z,16.80
2018-06-17T02:30:53.087Z,16.80
2018-06-17T02:31:26.953Z,16.80
2018-06-17T02:32:00.800Z,16.80
2018-06-17T02:32:34.648Z,16.80
2018-06-17T02:33:42.025Z,16.80
2018-06-17T02:34:16.223Z,16.70
2018-06-17T02:35:23.611Z,16.70
2018-06-17T02:35:57.485Z,16.70
2018-06-17T02:36:31.396Z,16.70
2018-06-17T02:37:06.049Z,16.70
2018-06-17T02:37:39.909Z,16.70
2018-06-17T02:38:14.430Z,16.70
2018-06-17T02:38:48.374Z,16.70
2018-06-17T02:39:22.411Z,16.70
2018-06-17T02:40:30.122Z,16.70
2018-06-17T02:41:04.011Z,16.70
2018-06-17T02:41:38.128Z,16.70
2018-06-17T02:42:12.005Z,16.70
2018-06-17T02:42:46.209Z,16.70
2018-06-17T02:43:20.065Z,16.70
2018-06-17T02:43:54.263Z,16.70
2018-06-17T02:44:28.126Z,16.70
2018-06-17T02:45:07.383Z,16.70
2018-06-17T02:45:46.619Z,16.70
2018-06-17T02:46:25.885Z,16.70
2018-06-17T02:47:05.175Z,16.70
2018-06-17T02:48:23.495Z,16.70
2018-06-17T02:49:02.679Z,16.70
2018-06-17T02:49:39.034Z,16.70
2018-06-17T02:50:18.375Z,16.70
2018-06-17T02:50:57.672Z,16.70
2018-06-17T02:51:37.305Z,16.70
2018-06-17T02:53:14.799Z,16.70
2018-06-17T02:53:54.097Z,16.70
2018-06-17T02:54:33.274Z,16.80
2018-06-17T02:55:07.195Z,16.80
2018-06-17T02:55:41.029Z,16.80
2018-06-17T02:56:14.931Z,16.80
2018-06-17T02:56:48.847Z,16.80
2018-06-17T02:57:22.789Z,16.80
2018-06-17T02:57:56.720Z,16.80
2018-06-17T02:58:30.712Z,16.80
2018-06-17T02:59:04.901Z,16.80
2018-06-17T02:59:39.085Z,16.80
2018-06-17T03:00:12.935Z,16.90
2018-06-17T03:00:46.819Z,16.90
2018-06-17T03:01:20.661Z,16.90
2018-06-17T03:01:54.573Z,16.90
2018-06-17T03:02:28.455Z,16.90
2018-06-17T03:03:02.301Z,16.90
2018-06-17T03:03:36.187Z,16.90
2018-06-17T03:04:10.031Z,16.90
2018-06-17T03:04:43.891Z,16.90
2018-06-17T03:05:17.757Z,17.00
2018-06-17T03:05:51.617Z,16.90
2018-06-17T03:06:25.481Z,16.90
2018-06-17T03:06:59.724Z,17.00
2018-06-17T03:07:33.610Z,17.00
2018-06-17T03:08:07.479Z,17.00
2018-06-17T03:08:41.633Z,17.00
2018-06-17T03:09:15.487Z,17.00
2018-06-17T03:09:50.089Z,17.00
2018-06-17T03:10:24.285Z,17.00
2018-06-17T03:10:58.125Z,17.00
2018-06-17T03:11:32.704Z,17.00
2018-06-17T03:12:06.651Z,17.00
2018-06-17T03:12:40.501Z,17.10
2018-06-17T03:13:14.345Z,17.00
2018-06-17T03:14:21.739Z,17.00
2018-06-17T03:14:55.609Z,17.00
2018-06-17T03:15:29.473Z,17.10
2018-06-17T03:16:03.297Z,17.10
2018-06-17T03:16:37.673Z,17.10
2018-06-17T03:17:11.853Z,17.10
2018-06-17T03:17:45.713Z,17.20
2018-06-17T03:18:53.096Z,17.20
2018-06-17T03:20:00.510Z,17.20
2018-06-17T03:20:34.369Z,17.20
2018-06-17T03:21:08.193Z,17.20
2018-06-17T03:21:42.060Z,17.30
2018-06-17T03:22:15.929Z,17.30
2018-06-17T03:22:49.779Z,17.30
2018-06-17T03:23:23.625Z,17.40
2018-06-17T03:23:57.581Z,17.40
2018-06-17T03:24:36.750Z,17.50
2018-06-17T03:25:16.335Z,17.50
2018-06-17T03:25:55.539Z,17.60
2018-06-17T03:26:34.919Z,17.70
2018-06-17T03:27:14.124Z,17.80
2018-06-17T03:27:53.501Z,17.90
2018-06-17T03:28:32.747Z,18.00
2018-06-17T03:29:11.821Z,18.00
2018-06-17T03:29:51.002Z,18.10
2018-06-17T03:30:30.629Z,18.20
2018-06-17T03:31:09.885Z,18.30
2018-06-17T03:31:49.219Z,18.30
2018-06-17T03:32:28.657Z,18.40
2018-06-17T03:33:08.311Z,18.40
2018-06-17T03:33:52.440Z,18.40
2018-06-17T03:34:26.332Z,18.40
2018-06-17T03:35:05.693Z,18.40
2018-06-17T03:35:44.925Z,18.30
2018-06-17T03:36:18.773Z,18.30
2018-06-17T03:36:52.663Z,18.30
2018-06-17T03:37:26.549Z,18.30
2018-06-17T03:38:00.443Z,18.30
2018-06-17T03:38:34.395Z,18.20
2018-06-17T03:40:15.637Z,18.10
2018-06-17T03:40:49.501Z,18.10
2018-06-17T03:41:23.700Z,18.10
2018-06-17T03:41:57.571Z,18.00
2018-06-17T03:42:31.455Z,18.00
2018-06-17T03:43:05.657Z,18.00
2018-06-17T03:43:39.687Z,18.00
2018-06-17T03:44:13.537Z,18.00
2018-06-17T03:44:47.410Z,18.00
2018-06-17T03:46:24.241Z,18.00
2018-06-17T03:46:58.139Z,18.00
2018-06-17T03:47:32.001Z,18.00
2018-06-17T03:48:05.893Z,18.10
2018-06-17T03:48:39.786Z,18.10
2018-06-17T03:49:13.647Z,18.20
2018-06-17T03:49:47.511Z,18.30
2018-06-17T03:50:21.375Z,18.50
2018-06-17T03:51:29.089Z,18.70
2018-06-17T03:52:03.018Z,18.80
2018-06-17T03:52:37.221Z,18.90
2018-06-17T03:53:11.063Z,19.10
2018-06-17T03:53:44.914Z,19.20
2018-06-17T03:54:18.769Z,19.40
2018-06-17T03:54:52.609Z,19.50
2018-06-17T03:55:26.443Z,19.70
2018-06-17T03:56:00.647Z,19.80
2018-06-17T03:56:34.502Z,19.90
2018-06-17T03:57:41.947Z,20.20
2018-06-17T03:58:15.835Z,20.40
2018-06-17T03:58:49.753Z,20.50
2018-06-17T03:59:23.947Z,20.60
2018-06-17T03:59:57.885Z,20.80
2018-06-17T04:01:05.605Z,21.00
2018-06-17T04:01:39.447Z,21.10
2018-06-17T04:02:13.771Z,21.30
2018-06-17T04:03:21.285Z,21.50
2018-06-17T04:03:55.166Z,21.60
2018-06-17T04:04:29.037Z,21.70
2018-06-17T04:05:41.922Z,21.90
2018-06-17T04:06:15.789Z,22.00
2018-06-17T04:06:49.657Z,22.10
2018-06-17T04:07:23.871Z,22.20
2018-06-17T04:07:59.232Z,22.20
2018-06-17T04:08:33.080Z,22.20
2018-06-17T04:09:07.602Z,22.30
2018-06-17T04:09:41.435Z,22.40
2018-06-17T04:10:15.314Z,22.40
2018-06-17T04:10:49.147Z,22.50
2018-06-17T04:11:56.586Z,22.60
2018-06-17T04:12:30.504Z,22.60
2018-06-17T04:13:04.697Z,22.70
2018-06-17T04:13:38.599Z,22.80
2018-06-17T04:14:12.497Z,22.90
2018-06-17T04:14:46.345Z,23.00
2018-06-17T04:15:20.347Z,23.00
2018-06-17T04:15:54.252Z,23.10
2018-06-17T04:16:28.100Z,23.20
2018-06-17T04:17:06.318Z,23.30
2018-06-17T04:17:40.161Z,23.40
2018-06-17T04:18:14.005Z,23.50
2018-06-17T04:18:47.813Z,23.50
2018-06-17T04:19:21.671Z,23.50
2018-06-17T04:19:55.823Z,23.60
2018-06-17T04:20:29.637Z,23.60
2018-06-17T04:21:03.477Z,23.60
2018-06-17T04:21:37.321Z,23.70
2018-06-17T04:22:11.388Z,23.70
2018-06-17T04:22:45.605Z,23.80
2018-06-17T04:23:19.451Z,23.90
2018-06-17T04:23:53.277Z,23.90
2018-06-17T04:24:27.437Z,24.00
2018-06-17T04:25:01.277Z,24.10
2018-06-17T04:25:35.703Z,24.10
2018-06-17T04:26:09.705Z,24.20
2018-06-17T04:26:43.533Z,24.30
2018-06-17T04:27:17.395Z,24.40
2018-06-17T04:27:51.253Z,24.50
2018-06-17T04:28:25.441Z,24.50
2018-06-17T04:28:59.280Z,24.60
2018-06-17T04:29:33.124Z,24.60
2018-06-17T04:30:06.985Z,24.70
2018-06-17T04:30:40.853Z,24.60
2018-06-17T04:31:14.681Z,24.70
2018-06-17T04:31:48.515Z,24.70
2018-06-17T04:32:22.373Z,24.70
2018-06-17T04:32:56.239Z,24.70
2018-06-17T04:33:30.415Z,24.70
2018-06-17T04:34:04.269Z,24.70
2018-06-17T04:34:38.125Z,24.70
2018-06-17T04:35:12.054Z,24.70
2018-06-17T04:35:46.242Z,24.60
2018-06-17T04:36:20.091Z,24.50
2018-06-17T04:36:53.919Z,24.30
2018-06-17T04:37:27.785Z,24.20
2018-06-17T04:38:01.636Z,24.10
2018-06-17T04:38:35.453Z,24.10
2018-06-17T04:39:09.293Z,24.10
2018-06-17T04:39:43.130Z,24.10
2018-06-17T04:40:16.987Z,24.10
2018-06-17T04:40:50.829Z,24.10
2018-06-17T04:41:24.793Z,24.20
2018-06-17T04:41:59.003Z,24.20
2018-06-17T04:42:32.807Z,24.20
2018-06-17T04:43:07.011Z,24.20
2018-06-17T04:43:40.855Z,24.20
2018-06-17T04:44:14.723Z,24.30
2018-06-17T04:44:48.545Z,24.30
2018-06-17T04:45:22.713Z,24.40
2018-06-17T04:45:56.505Z,24.50
2018-06-17T04:46:30.331Z,24.60
2018-06-17T04:47:04.212Z,24.60
2018-06-17T04:47:38.068Z,24.60
2018-06-17T04:48:11.924Z,24.60
2018-06-17T04:48:45.776Z,24.60
2018-06-17T04:49:19.661Z,24.60
2018-06-17T04:49:53.609Z,24.60
2018-06-17T04:50:27.465Z,24.70
2018-06-17T04:51:01.353Z,24.70
2018-06-17T04:51:35.225Z,24.70
2018-06-17T04:52:09.074Z,24.70
2018-06-17T04:52:49.746Z,24.80
2018-06-17T04:53:23.619Z,24.80
2018-06-17T04:53:57.456Z,24.90
2018-06-17T04:54:31.302Z,24.80
2018-06-17T04:55:05.150Z,24.80
2018-06-17T04:55:39.002Z,24.80
2018-06-17T04:56:12.853Z,24.80
2018-06-17T04:56:46.708Z,24.70
2018-06-17T04:57:20.547Z,24.60
2018-06-17T04:57:54.385Z,24.50
2018-06-17T04:58:28.242Z,24.40
2018-06-17T04:59:02.086Z,24.30
2018-06-17T04:59:36.160Z,24.20
2018-06-17T05:00:09.991Z,24.10
2018-06-17T05:00:43.974Z,24.10
2018-06-17T05:01:17.806Z,24.00
2018-06-17T05:01:51.676Z,24.00
2018-06-17T05:02:25.843Z,24.00
2018-06-17T05:02:59.704Z,24.00
2018-06-17T05:03:33.792Z,23.90
2018-06-17T05:04:07.653Z,23.90
2018-06-17T05:04:41.510Z,23.80
2018-06-17T05:05:15.582Z,23.70
2018-06-17T05:05:49.477Z,23.60
2018-06-17T05:06:23.318Z,23.50
2018-06-17T05:06:57.162Z,23.40
2018-06-17T05:07:30.985Z,23.20
2018-06-17T05:08:05.217Z,23.00
2018-06-17T05:08:39.108Z,22.90
2018-06-17T05:09:12.978Z,22.90
2018-06-17T05:09:47.168Z,22.70
2018-06-17T05:10:21.009Z,22.60
2018-06-17T05:10:54.868Z,22.50
2018-06-17T05:11:28.711Z,22.40
2018-06-17T05:12:02.560Z,22.30
2018-06-17T05:12:36.422Z,22.10
2018-06-17T05:13:10.274Z,22.00
2018-06-17T05:13:44.184Z,21.90
2018-06-17T05:14:18.042Z,21.80
2018-06-17T05:14:51.898Z,21.70
2018-06-17T05:15:25.798Z,21.60
2018-06-17T05:15:59.665Z,21.50
2018-06-17T05:16:33.535Z,21.50
2018-06-17T05:17:07.389Z,21.30
2018-06-17T05:17:41.449Z,21.30
2018-06-17T05:18:15.298Z,21.20
2018-06-17T05:18:49.161Z,21.10
2018-06-17T05:19:23.006Z,21.10
2018-06-17T05:19:56.848Z,21.10
2018-06-17T05:20:30.694Z,21.10
2018-06-17T05:21:04.570Z,21.00
2018-06-17T05:21:38.928Z,21.00
2018-06-17T05:22:12.892Z,20.90
2018-06-17T05:22:46.744Z,20.90
2018-06-17T05:23:20.618Z,20.80
2018-06-17T05:23:54.503Z,20.80
2018-06-17T05:24:28.342Z,20.80
2018-06-17T05:25:02.260Z,20.80
2018-06-17T05:25:36.130Z,20.70
2018-06-17T05:26:09.991Z,20.70
2018-06-17T05:26:43.827Z,20.70
2018-06-17T05:27:17.696Z,20.70
2018-06-17T05:27:51.526Z,20.70
2018-06-17T05:28:25.357Z,20.70
2018-06-17T05:28:59.260Z,20.70
2018-06-17T05:29:33.114Z,20.70
2018-06-17T05:30:07.326Z,20.70
2018-06-17T05:30:41.188Z,20.70
2018-06-17T05:31:15.055Z,20.70
2018-06-17T05:31:49.250Z,20.80
2018-06-17T05:32:23.073Z,20.80
2018-06-17T05:32:56.938Z,20.80
2018-06-17T05:33:30.845Z,20.80
2018-06-17T05:34:04.928Z,20.80
2018-06-17T05:34:38.780Z,20.80
2018-06-17T05:35:12.658Z,20.80
2018-06-17T05:35:46.517Z,20.80
2018-06-17T05:36:20.358Z,20.70
2018-06-17T05:36:54.255Z,20.60
2018-06-17T05:37:28.132Z,20.50
2018-06-17T05:38:02.860Z,20.50
2018-06-17T05:38:36.738Z,20.50
2018-06-17T05:39:12.644Z,20.50
2018-06-17T05:39:46.506Z,20.50
2018-06-17T05:40:20.374Z,20.50
2018-06-17T05:40:54.256Z,20.50
2018-06-17T05:41:28.126Z,20.60
2018-06-17T05:42:01.990Z,20.60
2018-06-17T05:42:35.856Z,20.70
2018-06-17T05:43:43.247Z,20.90
2018-06-17T05:44:17.094Z,21.00
2018-06-17T05:44:50.936Z,21.20
2018-06-17T05:45:24.790Z,21.30
2018-06-17T05:45:58.639Z,21.30
2018-06-17T05:46:32.516Z,21.30
2018-06-17T05:47:39.947Z,21.40
2018-06-17T05:48:13.808Z,21.40
2018-06-17T05:48:47.668Z,21.40
2018-06-17T05:49:21.541Z,21.40
2018-06-17T05:49:55.396Z,21.40
2018-06-17T05:50:29.276Z,21.30
2018-06-17T05:51:03.158Z,21.30
2018-06-17T05:51:37.000Z,21.30
2018-06-17T05:52:10.818Z,21.30
2018-06-17T05:52:44.658Z,21.20
2018-06-17T05:53:18.498Z,21.20
2018-06-17T05:53:52.374Z,21.10
2018-06-17T05:54:26.238Z,21.10
2018-06-17T05:55:00.091Z,21.10
2018-06-17T05:55:34.032Z,21.00
2018-06-17T05:56:08.068Z,21.00
2018-06-17T05:56:41.942Z,21.00
2018-06-17T05:57:15.794Z,21.10
2018-06-17T05:58:23.168Z,21.10
2018-06-17T05:59:30.930Z,21.20
2018-06-17T06:00:04.969Z,21.20
2018-06-17T06:00:38.822Z,21.10
2018-06-17T06:01:13.054Z,21.10
2018-06-17T06:01:46.940Z,21.10
2018-06-17T06:02:20.786Z,21.10
2018-06-17T06:02:54.626Z,21.10
2018-06-17T06:03:29.020Z,21.10
2018-06-17T06:04:02.933Z,21.10
2018-06-17T06:04:36.982Z,21.10
2018-06-17T06:05:10.838Z,21.10
2018-06-17T06:05:44.734Z,21.20
2018-06-17T06:06:19.074Z,21.20
2018-06-17T06:06:52.955Z,21.30
2018-06-17T06:07:26.810Z,21.30
2018-06-17T06:08:00.692Z,21.30
2018-06-17T06:08:34.616Z,21.40
2018-06-17T06:09:43.138Z,21.40
2018-06-17T06:10:17.006Z,21.40
2018-06-17T06:10:51.077Z,21.40
2018-06-17T06:11:24.962Z,21.40
2018-06-17T06:11:58.824Z,21.30
2018-06-17T06:12:33.026Z,21.30
2018-06-17T06:13:06.882Z,21.30
2018-06-17T06:13:41.134Z,21.20
2018-06-17T06:14:15.050Z,21.10
2018-06-17T06:14:48.966Z,21.10
2018-06-17T06:15:22.856Z,21.00
2018-06-17T06:15:56.786Z,21.00
2018-06-17T06:17:04.600Z,20.90
2018-06-17T06:17:38.796Z,20.90
2018-06-17T06:18:12.652Z,20.90
2018-06-17T06:18:46.514Z,20.90
2018-06-17T06:19:20.456Z,20.90
2018-06-17T06:20:27.864Z,20.90
2018-06-17T06:21:01.762Z,20.90
2018-06-17T06:21:35.953Z,20.90
2018-06-17T06:22:09.832Z,20.90
2018-06-17T06:23:17.296Z,20.90
2018-06-17T06:23:51.192Z,20.80
2018-06-17T06:24:25.101Z,20.80
2018-06-17T06:24:58.962Z,20.80
2018-06-17T06:25:33.118Z,20.80
2018-06-17T06:26:06.990Z,20.80
2018-06-17T06:26:40.856Z,20.70
2018-06-17T06:27:14.714Z,20.70
2018-06-17T06:27:48.544Z,20.70
2018-06-17T06:28:22.437Z,20.70
2018-06-17T06:28:56.329Z,20.60
2018-06-17T06:29:30.740Z,20.60
2018-06-17T06:30:04.630Z,20.60
2018-06-17T06:30:38.498Z,20.50
2018-06-17T06:31:12.818Z,20.50
2018-06-17T06:31:46.702Z,20.50
2018-06-17T06:32:20.599Z,20.40
2018-06-17T06:32:54.462Z,20.30
2018-06-17T06:33:28.310Z,20.30
2018-06-17T06:34:02.182Z,20.20
2018-06-17T06:34:36.100Z,20.20
2018-06-17T06:35:09.974Z,20.10
2018-06-17T06:35:43.838Z,20.10
2018-06-17T06:36:18.072Z,20.10
2018-06-17T06:36:52.238Z,20.00
2018-06-17T06:37:26.206Z,20.00
2018-06-17T06:38:00.053Z,20.00
2018-06-17T06:38:33.893Z,20.10
2018-06-17T06:39:09.162Z,20.10
2018-06-17T06:39:43.014Z,20.10
2018-06-17T06:40:16.866Z,20.00
2018-06-17T06:40:50.728Z,20.00
2018-06-17T06:41:24.572Z,20.00
2018-06-17T06:41:58.398Z,20.00
2018-06-17T06:42:32.254Z,20.00
2018-06-17T06:43:06.768Z,19.90
2018-06-17T06:43:40.932Z,19.80
2018-06-17T06:44:14.756Z,19.80
2018-06-17T06:44:48.654Z,19.70
2018-06-17T06:45:22.522Z,19.60
2018-06-17T06:45:56.376Z,19.60
2018-06-17T06:46:30.230Z,19.60
2018-06-17T06:47:04.417Z,19.60
2018-06-17T06:47:38.282Z,19.50
2018-06-17T06:48:12.162Z,19.50
2018-06-17T06:48:46.004Z,19.50
2018-06-17T06:49:19.844Z,19.50
2018-06-17T06:50:27.294Z,19.50
2018-06-17T06:51:01.234Z,19.50
2018-06-17T06:51:35.809Z,19.50
2018-06-17T06:52:09.693Z,19.50
2018-06-17T06:52:43.559Z,19.50
2018-06-17T06:53:17.418Z,19.50
2018-06-17T06:53:51.274Z,19.60
2018-06-17T06:54:25.164Z,19.60
2018-06-17T06:54:59.084Z,19.60
2018-06-17T06:55:32.934Z,19.70
2018-06-17T06:56:07.064Z,19.70
2018-06-17T06:56:41.282Z,19.70
2018-06-17T06:57:15.489Z,19.70
2018-06-17T06:57:49.514Z,19.70
2018-06-17T06:58:23.763Z,19.70
2018-06-17T06:58:57.641Z,19.70
2018-06-17T06:59:31.511Z,19.70
2018-06-17T07:00:05.771Z,19.70
2018-06-17T07:00:39.617Z,19.70
2018-06-17T07:01:16.410Z,19.70
2018-06-17T07:02:01.758Z,19.80
2018-06-17T07:02:47.218Z,19.80
2018-06-17T07:03:32.584Z,19.90
2018-06-17T07:04:17.877Z,19.90
2018-06-17T07:05:03.019Z,20.00
2018-06-17T07:05:48.274Z,20.00
2018-06-17T07:06:33.516Z,20.00
2018-06-17T07:07:19.110Z,20.10
2018-06-17T07:08:04.385Z,20.10
2018-06-17T07:08:49.766Z,20.10
2018-06-17T07:10:41.957Z,20.20
2018-06-17T07:11:15.818Z,20.20
2018-06-17T07:12:23.336Z,20.20
2018-06-17T07:12:57.178Z,20.20
2018-06-17T07:13:31.046Z,20.20
2018-06-17T07:14:04.912Z,20.20
2018-06-17T07:14:38.764Z,20.10
2018-06-17T07:15:12.663Z,20.10
2018-06-17T07:15:57.979Z,20.10
2018-06-17T07:16:43.397Z,20.10
2018-06-17T07:17:28.897Z,20.00
2018-06-17T07:18:14.239Z,20.00
2018-06-17T07:18:48.091Z,20.00
2018-06-17T07:19:22.020Z,20.00
2018-06-17T07:19:55.901Z,20.00
2018-06-17T07:20:29.835Z,20.00
2018-06-17T07:21:04.037Z,20.00
2018-06-17T07:21:38.231Z,20.00
2018-06-17T07:22:12.094Z,20.00
2018-06-17T07:22:45.986Z,20.00
2018-06-17T07:23:19.849Z,20.00
2018-06-17T07:23:53.713Z,20.00
2018-06-17T07:24:27.589Z,20.10
2018-06-17T07:25:01.546Z,20.10
2018-06-17T07:26:47.937Z,20.10
2018-06-17T07:27:33.307Z,20.20
2018-06-17T07:29:23.803Z,20.30
2018-06-17T07:29:57.638Z,20.30
2018-06-17T07:30:31.514Z,20.40
2018-06-17T07:31:39.529Z,20.50
2018-06-17T07:32:13.386Z,20.50
2018-06-17T07:32:47.249Z,20.60
2018-06-17T07:33:21.112Z,20.60
2018-06-17T07:33:55.347Z,20.60
2018-06-17T07:34:29.220Z,20.70
2018-06-17T07:35:03.408Z,20.70
2018-06-17T07:35:37.289Z,20.70
2018-06-17T07:36:11.167Z,20.70
2018-06-17T07:36:45.402Z,20.70
2018-06-17T07:37:19.253Z,20.70
2018-06-17T07:37:53.462Z,20.70
2018-06-17T07:38:27.296Z,20.60
2018-06-17T07:39:07.838Z,20.60
2018-06-17T07:41:17.231Z,20.60
2018-06-17T07:41:51.104Z,20.60
2018-06-17T07:42:24.983Z,20.50
2018-06-17T07:42:59.585Z,20.50
2018-06-17T07:43:33.449Z,20.50
2018-06-17T07:44:07.313Z,20.50
2018-06-17T07:44:41.159Z,20.60
2018-06-17T07:45:15.025Z,20.60
2018-06-17T07:45:48.918Z,20.70
2018-06-17T07:46:23.253Z,20.70
2018-06-17T07:46:57.215Z,20.70
2018-06-17T07:48:04.970Z,20.90
2018-06-17T07:49:49.024Z,20.90
2018-06-17T07:50:34.470Z,20.90
2018-06-17T07:52:19.416Z,21.20
2018-06-17T07:53:04.579Z,21.30
2018-06-17T07:53:38.441Z,21.50
2018-06-17T07:54:12.402Z,21.50
2018-06-17T07:54:46.657Z,21.60
2018-06-17T07:55:20.536Z,21.70
2018-06-17T07:55:54.433Z,21.80
2018-06-17T07:56:28.285Z,21.80
2018-06-17T07:57:03.265Z,21.90
2018-06-17T07:57:37.115Z,21.90